Time;durP1;ratioP1;P1;durP2;ratioP2;P2;SDS_P1;SDS_P2;PMS_P1;PMS_P2;Temp;Humidity;BMP_temperature;BMP_pressure;BME280_temperature;BME280_humidity;BME280_pressure;Samples;Min_cycle;Max_cycle;Signal;HPM_P1;HPM_P2
2021/05/27 00:01:42;;;;;;;1.13;1.03;;;11.10;99.90;;;;;;5000423;28;20463;-90
2021/05/27 00:04:27;;;;;;;1.97;1.20;;;11.10;99.90;;;;;;4996100;28;20456;-90
2021/05/27 00:07:11;;;;;;;1.43;1.10;;;11.10;99.90;;;;;;4984364;28;20453;-90
2021/05/27 00:09:45;;;;;;;1.37;1.27;;;11.10;99.90;;;;;;4979552;28;20483;-91
2021/05/27 00:12:15;;;;;;;1.40;1.30;;;11.10;99.90;;;;;;4979297;28;20451;-91
2021/05/27 00:15:14;;;;;;;1.60;1.30;;;11.10;99.90;;;;;;4978073;28;20484;-90
2021/05/27 00:17:44;;;;;;;1.30;1.20;;;11.10;99.90;;;;;;4979661;28;20850;-91
2021/05/27 00:20:31;;;;;;;1.07;0.97;;;11.10;99.90;;;;;;4978816;28;20884;-88
2021/05/27 00:23:14;;;;;;;1.60;1.40;;;11.10;99.90;;;;;;4979800;28;20462;-89
2021/05/27 00:25:51;;;;;;;1.87;1.40;;;11.10;99.90;;;;;;4979009;28;20499;-90
2021/05/27 00:28:25;;;;;;;1.40;1.30;;;11.10;99.90;;;;;;4978265;28;20472;-90
2021/05/27 00:30:58;;;;;;;3.60;1.40;;;11.10;99.90;;;;;;4978797;28;20455;-89
2021/05/27 00:33:28;;;;;;;2.10;1.30;;;11.10;99.90;;;;;;4986970;28;20495;-89
2021/05/27 00:35:56;;;;;;;1.73;1.50;;;11.10;99.90;;;;;;4993853;28;20456;-90
2021/05/27 00:38:36;;;;;;;1.23;1.13;;;11.10;99.90;;;;;;4985258;28;20475;-89
2021/05/27 00:41:10;;;;;;;1.63;1.20;;;11.10;99.90;;;;;;4997761;28;20446;-89
2021/05/27 00:43:47;;;;;;;3.70;1.33;;;11.20;99.90;;;;;;4998580;28;20450;-88
2021/05/27 00:46:34;;;;;;;1.10;1.00;;;11.10;99.90;;;;;;5000311;28;20455;-89
2021/05/27 00:49:09;;;;;;;1.53;1.43;;;11.10;99.90;;;;;;4976032;28;20488;-89
2021/05/27 00:51:57;;;;;;;1.40;1.20;;;11.20;99.90;;;;;;4966718;28;20496;-89
2021/05/27 00:54:41;;;;;;;;;;;;;;;;;;;;;
2021/05/27 01:04:00;;;;;;;1.60;1.50;;;11.00;99.90;;;;;;4977889;28;20538;-89
2021/05/27 01:07:26;;;;;;;2.13;1.20;;;11.00;99.90;;;;;;4977641;28;20590;-90
2021/05/27 01:10:43;;;;;;;1.60;1.40;;;11.10;99.90;;;;;;4966867;28;20803;-89
2021/05/27 01:13:38;;;;;;;1.50;1.40;;;11.10;99.90;;;;;;4977786;28;20476;-90
2021/05/27 01:17:06;;;;;;;;;;;;;;;;;;;;;
2021/05/27 01:20:34;;;;;;;3.93;1.43;;;11.10;99.90;;;;;;4957698;28;20460;-90
2021/05/27 01:24:03;;;;;;;3.80;1.60;;;11.00;99.90;;;;;;4873619;29;20522;-89
2021/05/27 01:27:05;;;;;;;2.30;1.43;;;11.00;99.90;;;;;;4825962;29;20503;-90
2021/05/27 01:43:27;;;;;;;2.90;1.30;;;10.90;99.90;;;;;;4960508;28;20449;-89
2021/05/27 01:46:57;;;;;;;3.20;1.87;;;10.90;99.90;;;;;;4936944;29;20501;-90
2021/05/27 01:52:54;;;;;;;2.67;2.00;;;10.90;99.90;;;;;;4977828;28;20452;-90
2021/05/27 01:56:01;;;;;;;2.03;1.50;;;10.90;99.90;;;;;;4964789;28;20484;-90
2021/05/27 01:58:56;;;;;;;2.23;1.20;;;10.90;99.90;;;;;;4979680;28;20475;-90
2021/05/27 02:02:15;;;;;;;;;;;;;;;;;;;;;
2021/05/27 02:05:26;;;;;;;1.67;1.30;;;10.80;99.90;;;;;;4976112;28;21164;-90
2021/05/27 02:08:21;;;;;;;5.07;2.00;;;10.80;99.90;;;;;;4987858;28;20476;-89
2021/05/27 02:11:33;;;;;;;2.00;1.30;;;10.80;99.90;;;;;;4978557;28;20456;-89
2021/05/27 02:17:54;;;;;;;2.03;1.93;;;10.80;99.90;;;;;;4875300;29;20455;-89
2021/05/27 02:21:01;;;;;;;1.90;1.70;;;10.80;99.90;;;;;;4897207;29;20455;-89
2021/05/27 02:29:59;;;;;;;3.83;1.60;;;10.70;99.90;;;;;;4951861;28;20470;-89
2021/05/27 02:32:54;;;;;;;2.30;1.63;;;10.80;99.90;;;;;;4989610;28;20518;-89
2021/05/27 02:35:59;;;;;;;2.67;2.03;;;10.80;99.90;;;;;;4981128;28;20456;-90
2021/05/27 02:39:01;;;;;;;2.10;1.90;;;10.70;99.90;;;;;;4972571;28;20487;-90
2021/05/27 02:42:19;;;;;;;1.63;1.53;;;10.70;99.90;;;;;;4994321;28;20448;-90
2021/05/27 02:55:02;;;;;;;2.00;1.90;;;10.70;99.90;;;;;;4970577;28;20510;-89
2021/05/27 03:01:47;;;;;;;2.70;1.73;;;10.80;99.90;;;;;;4911661;29;20443;-89
2021/05/27 03:04:13;;;;;;;2.50;1.90;;;10.80;99.90;;;;;;4948731;28;20459;-90
2021/05/27 03:06:40;;;;;;;2.87;1.90;;;10.90;99.90;;;;;;4975287;28;20454;-87
2021/05/27 03:09:06;;;;;;;1.90;1.70;;;10.90;99.90;;;;;;4976392;28;20479;-87
2021/05/27 03:11:33;;;;;;;1.77;1.67;;;10.90;99.90;;;;;;4974238;28;20454;-87
2021/05/27 03:13:59;;;;;;;2.37;2.17;;;10.90;99.90;;;;;;4974489;28;20994;-86
2021/05/27 03:16:25;;;;;;;1.60;1.50;;;10.90;99.90;;;;;;4974901;28;20463;-87
2021/05/27 03:18:51;;;;;;;2.30;2.10;;;10.80;99.90;;;;;;4980119;28;21001;-87
2021/05/27 03:21:18;;;;;;;4.30;2.07;;;10.70;99.90;;;;;;4982460;28;20479;-87
2021/05/27 03:23:44;;;;;;;2.80;2.10;;;10.70;99.90;;;;;;4981507;28;20463;-88
2021/05/27 03:26:10;;;;;;;4.13;1.63;;;10.70;99.90;;;;;;4976925;28;20456;-85
2021/05/27 03:28:37;;;;;;;3.57;1.70;;;10.60;99.90;;;;;;4976672;28;20475;-91
2021/05/27 03:31:07;;;;;;;2.40;1.80;;;10.60;99.90;;;;;;4978082;28;20466;-88
2021/05/27 03:33:34;;;;;;;2.10;1.83;;;10.60;99.90;;;;;;4977522;28;20578;-91
2021/05/27 03:36:00;;;;;;;3.53;1.77;;;10.60;99.90;;;;;;4977122;28;20466;-88
2021/05/27 03:38:26;;;;;;;1.73;1.63;;;10.60;99.90;;;;;;4992777;28;20535;-89
2021/05/27 03:40:52;;;;;;;6.17;2.20;;;10.60;99.90;;;;;;4990897;28;20518;-88
2021/05/27 03:43:18;;;;;;;2.57;1.80;;;10.60;99.90;;;;;;4975768;28;20475;-88
2021/05/27 03:45:46;;;;;;;2.27;1.73;;;10.60;99.90;;;;;;4982834;28;20468;-88
2021/05/27 03:48:13;;;;;;;1.70;1.60;;;10.60;99.90;;;;;;4985855;28;20475;-89
2021/05/27 03:50:39;;;;;;;2.03;1.50;;;10.60;99.90;;;;;;4994845;28;20476;-89
2021/05/27 03:53:07;;;;;;;2.77;2.50;;;10.60;99.90;;;;;;4976059;28;20528;-89
2021/05/27 03:55:33;;;;;;;3.27;2.43;;;10.60;99.90;;;;;;4976723;28;20556;-90
2021/05/27 03:57:59;;;;;;;2.63;2.43;;;10.60;99.90;;;;;;4976556;28;20480;-89
2021/05/27 04:00:43;;;;;;;3.40;2.27;;;10.60;99.90;;;;;;4980560;28;20953;-88
2021/05/27 04:03:10;;;;;;;3.20;2.40;;;10.60;99.90;;;;;;4977213;28;20432;-88
2021/05/27 04:08:22;;;;;;;3.10;1.90;;;10.60;99.90;;;;;;4977795;28;20455;-89
2021/05/27 04:10:48;;;;;;;3.67;3.00;;;10.60;99.90;;;;;;4997535;28;20503;-88
2021/05/27 04:13:15;;;;;;;2.63;2.03;;;10.60;99.90;;;;;;4995657;28;20472;-89
2021/05/27 04:15:42;;;;;;;4.60;2.00;;;10.60;99.90;;;;;;4992621;28;20470;-89
2021/05/27 04:18:26;;;;;;;2.63;2.37;;;10.70;99.90;;;;;;4979806;28;20476;-89
2021/05/27 04:20:55;;;;;;;4.33;2.10;;;10.70;99.90;;;;;;4977344;28;20468;-89
2021/05/27 04:23:35;;;;;;;2.43;1.90;;;10.70;99.90;;;;;;4987650;28;20440;-89
2021/05/27 04:26:01;;;;;;;2.30;2.10;;;10.60;99.90;;;;;;4981454;28;20440;-89
2021/05/27 04:28:27;;;;;;;4.90;2.70;;;10.60;99.90;;;;;;4981889;28;20479;-89
2021/05/27 04:31:09;;;;;;;7.97;6.67;;;10.60;99.90;;;;;;4980441;28;20497;-89
2021/05/27 04:33:36;;;;;;;3.37;3.10;;;10.60;99.90;;;;;;4982330;28;20478;-89
2021/05/27 04:36:03;;;;;;;3.03;2.10;;;10.60;99.90;;;;;;4978633;28;20510;-89
2021/05/27 04:38:29;;;;;;;2.80;2.37;;;10.70;99.90;;;;;;5000176;23;20553;-82
2021/05/27 04:40:56;;;;;;;1.97;1.87;;;10.70;99.90;;;;;;4997297;28;20458;-84
2021/05/27 04:43:23;;;;;;;2.83;2.10;;;10.70;99.90;;;;;;4976860;28;20453;-85
2021/05/27 04:45:50;;;;;;;2.30;2.10;;;10.70;99.90;;;;;;4977065;28;20452;-83
2021/05/27 04:48:16;;;;;;;3.40;2.23;;;10.70;99.90;;;;;;4976174;28;20475;-82
2021/05/27 04:50:43;;;;;;;3.93;2.20;;;10.80;99.90;;;;;;4963889;28;20450;-81
2021/05/27 04:53:10;;;;;;;2.27;1.90;;;10.80;99.90;;;;;;4966694;28;20480;-81
2021/05/27 04:55:37;;;;;;;4.93;2.27;;;10.80;99.90;;;;;;4971307;28;20467;-85
2021/05/27 04:58:04;;;;;;;2.60;2.40;;;10.90;99.90;;;;;;4968737;28;20467;-85
2021/05/27 05:00:32;;;;;;;5.63;2.33;;;10.90;99.90;;;;;;4980898;28;20458;-85
2021/05/27 05:03:00;;;;;;;3.40;2.40;;;10.90;99.90;;;;;;4980263;28;20571;-84
2021/05/27 05:05:27;;;;;;;3.90;2.23;;;10.90;99.90;;;;;;4979305;28;20827;-85
2021/05/27 05:07:54;;;;;;;2.17;1.97;;;11.00;99.90;;;;;;4980791;28;20444;-82
2021/05/27 05:10:23;;;;;;;3.30;2.30;;;11.10;99.90;;;;;;4981276;28;20787;-83
2021/05/27 05:12:50;;;;;;;2.13;1.93;;;11.50;99.90;;;;;;4984086;28;20439;-83
2021/05/27 05:15:17;;;;;;;4.97;4.20;;;12.40;99.90;;;;;;4981253;28;20564;-83
2021/05/27 05:17:47;;;;;;;3.67;3.37;;;13.20;99.90;;;;;;4979129;28;20448;-83
2021/05/27 05:20:13;;;;;;;2.50;1.97;;;13.90;99.90;;;;;;4991338;28;20491;-83
2021/05/27 05:22:39;;;;;;;3.40;1.83;;;14.70;99.90;;;;;;4980705;28;20440;-84
2021/05/27 05:25:07;;;;;;;1.67;1.57;;;15.10;97.10;;;;;;4975791;28;20448;-84
2021/05/27 05:27:34;;;;;;;1.40;1.30;;;15.60;96.40;;;;;;4975262;28;20440;-83
2021/05/27 05:30:00;;;;;;;2.00;1.53;;;16.00;94.90;;;;;;4982734;28;20975;-84
2021/05/27 05:32:27;;;;;;;2.00;1.90;;;16.40;93.40;;;;;;4978136;28;20459;-87
2021/05/27 05:34:54;;;;;;;3.07;1.70;;;16.60;92.00;;;;;;4976913;28;20479;-84
2021/05/27 05:37:21;;;;;;;2.13;1.93;;;16.90;91.00;;;;;;4983041;28;20464;-84
2021/05/27 05:39:50;;;;;;;2.13;1.90;;;16.60;90.60;;;;;;4994728;28;20472;-84
2021/05/27 05:42:16;;;;;;;1.60;1.50;;;15.90;90.80;;;;;;4994102;28;20478;-83
2021/05/27 05:44:43;;;;;;;4.07;2.07;;;15.30;91.60;;;;;;4999423;28;20428;-81
2021/05/27 05:47:13;;;;;;;2.47;1.70;;;14.90;92.90;;;;;;4997177;28;20448;-82
2021/05/27 05:49:39;;;;;;;2.10;1.73;;;14.60;93.40;;;;;;4995340;28;20447;-81
2021/05/27 05:52:06;;;;;;;2.00;1.70;;;14.40;93.90;;;;;;4997383;28;20448;-81
2021/05/27 05:54:32;;;;;;;4.73;2.40;;;14.20;93.90;;;;;;4996216;28;20484;-81
2021/05/27 05:56:58;;;;;;;3.37;2.50;;;14.10;93.90;;;;;;4991826;28;20451;-83
2021/05/27 05:59:29;;;;;;;2.40;1.60;;;13.90;94.40;;;;;;4993760;28;20494;-83
2021/05/27 06:01:56;;;;;;;5.57;1.93;;;13.70;94.90;;;;;;4991673;28;20449;-85
2021/05/27 06:04:23;;;;;;;2.83;1.90;;;13.70;94.60;;;;;;4985280;28;20451;-83
2021/05/27 06:06:51;;;;;;;2.60;1.90;;;13.70;95.00;;;;;;4981149;28;20445;-83
2021/05/27 06:09:17;;;;;;;4.20;2.53;;;14.10;94.90;;;;;;4985702;28;20600;-84
2021/05/27 06:11:43;;;;;;;2.50;2.00;;;14.90;94.50;;;;;;4991304;28;20450;-83
2021/05/27 06:14:10;;;;;;;4.40;2.73;;;15.90;92.00;;;;;;4990169;28;20590;-84
2021/05/27 06:16:36;;;;;;;3.43;3.13;;;17.20;90.30;;;;;;4981329;28;20455;-84
2021/05/27 06:19:03;;;;;;;3.13;1.60;;;18.40;86.00;;;;;;4985106;28;20485;-85
2021/05/27 06:21:30;;;;;;;3.20;2.03;;;18.90;79.90;;;;;;4989349;28;20465;-83
2021/05/27 06:23:56;;;;;;;4.03;2.57;;;19.10;79.70;;;;;;4978520;28;20450;-86
2021/05/27 06:26:22;;;;;;;5.00;1.37;;;19.70;76.10;;;;;;4977580;28;20439;-88
2021/05/27 06:28:49;;;;;;;3.23;1.50;;;20.60;72.80;;;;;;4978354;28;20473;-87
2021/05/27 06:31:16;;;;;;;1.97;1.37;;;21.20;69.10;;;;;;4975413;28;20487;-89
2021/05/27 06:33:44;;;;;;;4.73;1.50;;;21.30;66.80;;;;;;4976131;28;20453;-89
2021/05/27 06:36:12;;;;;;;2.27;1.77;;;21.80;65.00;;;;;;4977229;28;20456;-85
2021/05/27 06:38:39;;;;;;;3.37;1.50;;;21.30;63.50;;;;;;4971722;28;21320;-83
2021/05/27 06:41:07;;;;;;;2.20;1.47;;;20.90;61.50;;;;;;4975339;28;20971;-87
2021/05/27 06:43:33;;;;;;;3.53;1.50;;;20.60;64.20;;;;;;4975590;28;20989;-85
2021/05/27 06:46:00;;;;;;;1.43;1.33;;;20.20;64.50;;;;;;4973816;28;20532;-85
2021/05/27 06:48:26;;;;;;;2.50;1.60;;;20.60;63.70;;;;;;4974059;28;20467;-86
2021/05/27 06:51:10;;;;;;;3.63;1.97;;;21.90;61.30;;;;;;4974899;28;21204;-87
2021/05/27 06:53:39;;;;;;;2.93;1.53;;;22.20;59.00;;;;;;4974526;28;20437;-86
2021/05/27 06:56:05;;;;;;;3.80;1.57;;;21.50;59.70;;;;;;4976997;28;20448;-87
2021/05/27 06:58:32;;;;;;;2.20;1.80;;;20.40;60.80;;;;;;4976489;28;20498;-87
2021/05/27 07:00:58;;;;;;;1.30;1.10;;;19.60;63.50;;;;;;4973238;28;20534;-87
2021/05/27 07:03:24;;;;;;;4.20;1.43;;;18.90;64.90;;;;;;4974198;28;20481;-87
2021/05/27 07:05:51;;;;;;;1.50;1.20;;;17.90;66.10;;;;;;4971836;28;20910;-86
2021/05/27 07:08:18;;;;;;;1.33;1.13;;;17.30;68.20;;;;;;4977137;28;20484;-86
2021/05/27 07:10:45;;;;;;;3.73;1.30;;;16.80;70.00;;;;;;4985752;28;20478;-87
2021/05/27 07:13:12;;;;;;;4.27;2.00;;;16.50;71.80;;;;;;4982232;28;20456;-87
2021/05/27 07:15:39;;;;;;;2.17;1.87;;;16.30;73.60;;;;;;4983517;28;20448;-87
2021/05/27 07:18:06;;;;;;;2.50;1.47;;;16.00;73.40;;;;;;4979537;28;21034;-87
2021/05/27 07:20:33;;;;;;;2.03;1.60;;;16.00;75.30;;;;;;4976765;28;20427;-87
2021/05/27 07:23:01;;;;;;;3.33;1.30;;;16.10;76.00;;;;;;4973640;28;20456;-87
2021/05/27 07:25:30;;;;;;;2.83;1.27;;;17.40;72.90;;;;;;4972523;28;20575;-87
2021/05/27 07:27:57;;;;;;;1.40;1.23;;;19.40;69.70;;;;;;4973864;28;20428;-88
2021/05/27 07:30:26;;;;;;;2.93;1.50;;;20.50;62.60;;;;;;4974090;28;20502;-89
2021/05/27 07:32:53;;;;;;;2.97;1.57;;;20.70;61.60;;;;;;4973964;28;20445;-88
2021/05/27 07:35:19;;;;;;;2.80;2.07;;;21.70;59.40;;;;;;4973889;28;20476;-86
2021/05/27 07:37:46;;;;;;;2.70;1.40;;;23.50;57.30;;;;;;4974848;28;20436;-87
2021/05/27 07:40:19;;;;;;;2.87;1.90;;;24.00;53.70;;;;;;4975084;28;20461;-85
2021/05/27 07:42:45;;;;;;;1.67;1.30;;;24.80;53.40;;;;;;4985326;28;20459;-87
2021/05/27 07:45:12;;;;;;;6.70;1.50;;;25.10;51.60;;;;;;4985307;28;20483;-87
2021/05/27 07:47:40;;;;;;;2.60;1.23;;;24.80;50.10;;;;;;4976754;28;20949;-87
2021/05/27 07:50:08;;;;;;;2.40;1.77;;;24.00;50.30;;;;;;4979913;28;20467;-87
2021/05/27 07:52:36;;;;;;;2.33;1.30;;;24.30;51.00;;;;;;4992468;28;20455;-87
2021/05/27 07:55:03;;;;;;;2.50;1.33;;;25.50;48.80;;;;;;4979717;28;20444;-87
2021/05/27 07:57:30;;;;;;;4.90;1.50;;;24.80;48.40;;;;;;4975393;28;20465;-87
2021/05/27 07:59:57;;;;;;;4.07;1.67;;;23.30;49.80;;;;;;4978028;28;20461;-87
2021/05/27 08:02:24;;;;;;;2.40;1.87;;;22.10;52.40;;;;;;4988798;28;20453;-87
2021/05/27 08:04:53;;;;;;;1.83;1.57;;;22.10;53.60;;;;;;4977262;28;21013;-87
2021/05/27 08:07:20;;;;;;;1.73;1.37;;;23.90;52.50;;;;;;4984806;28;20450;-88
2021/05/27 08:09:46;;;;;;;3.33;1.50;;;24.50;50.10;;;;;;4998240;28;20504;-86
2021/05/27 08:12:13;;;;;;;1.80;1.37;;;24.10;49.60;;;;;;4992853;28;20454;-87
2021/05/27 08:14:39;;;;;;;1.40;1.30;;;22.90;50.60;;;;;;4980666;28;20439;-87
2021/05/27 08:17:05;;;;;;;2.80;1.97;;;23.00;52.00;;;;;;4986733;28;20468;-87
2021/05/27 08:19:34;;;;;;;2.40;1.67;;;24.70;51.20;;;;;;4981530;28;20507;-86
2021/05/27 08:22:01;;;;;;;3.77;1.93;;;24.80;49.50;;;;;;4980561;28;20469;-86
2021/05/27 08:24:27;;;;;;;3.47;1.77;;;23.60;49.10;;;;;;4979799;28;20497;-86
2021/05/27 08:26:53;;;;;;;3.60;1.80;;;21.90;51.20;;;;;;4981354;28;20454;-85
2021/05/27 08:29:20;;;;;;;3.07;1.70;;;20.70;53.10;;;;;;4977539;28;20509;-86
2021/05/27 08:31:46;;;;;;;2.17;1.97;;;21.20;54.90;;;;;;4988954;28;20462;-84
2021/05/27 08:34:12;;;;;;;2.73;1.60;;;23.30;52.70;;;;;;4984582;28;20448;-85
2021/05/27 08:36:39;;;;;;;1.63;1.30;;;24.00;49.40;;;;;;4973778;28;20452;-84
2021/05/27 08:39:08;;;;;;;2.80;1.27;;;23.40;49.90;;;;;;4989458;28;20480;-85
2021/05/27 08:41:34;;;;;;;3.83;2.00;;;22.90;51.10;;;;;;4975177;28;20463;-84
2021/05/27 08:44:02;;;;;;;2.67;1.77;;;23.80;50.30;;;;;;4976549;28;20471;-84
2021/05/27 08:46:28;;;;;;;3.47;1.60;;;24.00;50.60;;;;;;4977212;28;20454;-85
2021/05/27 08:48:55;;;;;;;2.27;1.30;;;25.40;49.20;;;;;;4986864;28;20486;-84
2021/05/27 08:51:21;;;;;;;4.03;1.77;;;27.60;45.50;;;;;;4994705;28;20450;-85
2021/05/27 08:53:49;;;;;;;2.13;1.40;;;28.60;41.90;;;;;;4985373;28;20487;-87
2021/05/27 08:56:15;;;;;;;1.80;1.27;;;26.80;43.10;;;;;;4994089;28;20456;-85
2021/05/27 08:58:42;;;;;;;3.03;1.73;;;24.70;46.10;;;;;;4984868;28;20460;-87
2021/05/27 09:01:09;;;;;;;2.03;1.83;;;22.90;47.90;;;;;;4968428;28;20489;-86
2021/05/27 09:03:40;;;;;;;3.37;2.40;;;23.00;50.00;;;;;;4972677;28;20569;-86
2021/05/27 09:06:07;;;;;;;3.53;1.67;;;25.30;47.40;;;;;;4977035;28;20440;-86
2021/05/27 09:08:36;;;;;;;1.80;1.60;;;25.80;45.40;;;;;;4989688;28;20475;-86
2021/05/27 09:11:04;;;;;;;1.30;1.20;;;24.70;44.90;;;;;;4980397;28;20487;-86
2021/05/27 09:13:31;;;;;;;4.07;1.90;;;23.60;46.60;;;;;;4976508;28;20957;-87
2021/05/27 09:16:07;;;;;;;1.77;1.37;;;22.40;48.10;;;;;;4976758;28;20499;-87
2021/05/27 09:18:34;;;;;;;2.53;1.10;;;22.30;50.50;;;;;;4977886;28;20471;-88
2021/05/27 09:21:01;;;;;;;3.03;1.93;;;22.80;49.30;;;;;;4976659;28;20487;-88
2021/05/27 09:23:28;;;;;;;5.57;1.90;;;22.30;49.00;;;;;;4978060;28;20448;-88
2021/05/27 09:26:04;;;;;;;1.87;1.47;;;22.30;49.20;;;;;;4980681;28;20448;-88
2021/05/27 09:28:31;;;;;;;1.60;1.27;;;21.70;50.70;;;;;;4981211;28;20451;-87
2021/05/27 09:30:59;;;;;;;2.67;1.40;;;21.30;51.70;;;;;;4977498;28;20455;-88
2021/05/27 09:33:31;;;;;;;5.17;4.47;;;22.80;49.90;;;;;;4985463;28;20447;-87
2021/05/27 09:36:05;;;;;;;2.33;1.90;;;21.70;49.40;;;;;;4987004;28;20481;-87
2021/05/27 09:39:20;;;;;;;3.57;1.73;;;20.70;51.70;;;;;;4982647;28;20467;-87
2021/05/27 09:41:59;;;;;;;3.43;1.40;;;20.60;54.00;;;;;;4999735;28;20467;-87
2021/05/27 09:44:30;;;;;;;1.57;1.40;;;20.50;52.90;;;;;;5000135;28;20509;-87
2021/05/27 09:46:57;;;;;;;3.00;1.73;;;20.20;53.50;;;;;;4999359;28;20449;-86
2021/05/27 09:49:25;;;;;;;2.00;1.20;;;19.80;53.60;;;;;;4998539;28;20472;-86
2021/05/27 09:51:53;;;;;;;2.03;1.53;;;19.50;54.30;;;;;;4999375;28;20446;-87
2021/05/27 09:54:20;;;;;;;2.50;1.57;;;20.60;54.40;;;;;;4994056;28;20441;-86
2021/05/27 09:56:46;;;;;;;3.07;1.50;;;23.00;51.20;;;;;;4984243;28;20450;-85
2021/05/27 09:59:13;;;;;;;3.10;1.87;;;25.10;48.30;;;;;;4980186;28;20475;-86
2021/05/27 10:02:11;;;;;;;4.23;3.07;;;25.50;45.30;;;;;;4975977;28;20455;-86
2021/05/27 10:04:37;;;;;;;4.13;3.10;;;24.00;46.20;;;;;;4977864;28;20492;-85
2021/05/27 10:07:04;;;;;;;4.50;2.30;;;22.80;48.20;;;;;;4985039;28;20456;-85
2021/05/27 10:09:30;;;;;;;4.13;2.60;;;23.00;49.50;;;;;;5017182;28;20452;-87
2021/05/27 10:11:57;;;;;;;7.20;3.47;;;23.20;48.50;;;;;;4963942;28;20459;-87
2021/05/27 10:14:25;;;;;;;4.17;2.40;;;22.80;49.30;;;;;;4971697;28;20480;-88
2021/05/27 10:16:52;;;;;;;3.93;3.07;;;22.60;48.80;;;;;;4978016;28;20453;-88
2021/05/27 10:19:19;;;;;;;3.50;2.37;;;22.30;48.80;;;;;;4977299;28;20983;-87
2021/05/27 10:21:45;;;;;;;2.20;1.60;;;21.90;50.10;;;;;;4967348;28;20464;-86
2021/05/27 10:24:12;;;;;;;1.53;1.40;;;21.30;50.50;;;;;;4957101;28;20482;-87
2021/05/27 10:26:38;;;;;;;1.73;1.33;;;20.60;51.40;;;;;;4957025;28;20458;-86
2021/05/27 10:29:05;;;;;;;1.50;1.40;;;20.00;52.90;;;;;;4957517;28;20478;-86
2021/05/27 10:31:37;;;;;;;2.50;2.00;;;19.50;54.30;;;;;;4973803;28;20453;-86
2021/05/27 10:34:05;;;;;;;1.80;1.43;;;19.00;55.80;;;;;;4978598;28;20502;-85
2021/05/27 10:36:43;;;;;;;2.13;1.70;;;18.60;56.60;;;;;;4977301;28;20459;-85
2021/05/27 10:39:09;;;;;;;2.70;1.70;;;18.30;57.00;;;;;;4998755;28;20965;-85
2021/05/27 10:41:55;;;;;;;4.23;2.63;;;18.20;57.90;;;;;;4965606;28;21016;-87
2021/05/27 10:44:21;;;;;;;2.90;2.00;;;18.30;58.40;;;;;;4961321;28;20578;-87
2021/05/27 10:47:08;;;;;;;3.90;2.67;;;18.40;58.60;;;;;;4958764;28;20464;-87
2021/05/27 10:49:55;;;;;;;1.93;1.73;;;18.50;58.30;;;;;;4956179;28;20564;-88
2021/05/27 10:52:34;;;;;;;3.73;2.23;;;18.40;59.10;;;;;;4955980;28;20480;-87
2021/05/27 10:55:01;;;;;;;2.87;2.03;;;18.30;59.40;;;;;;4959438;28;20533;-86
2021/05/27 10:57:46;;;;;;;3.43;2.40;;;18.20;59.60;;;;;;4971622;28;20450;-85
2021/05/27 11:00:50;;;;;;;4.60;3.70;;;18.40;59.60;;;;;;4979478;28;20482;-86
2021/05/27 11:03:42;;;;;;;4.90;2.20;;;19.00;59.20;;;;;;4976948;28;20483;-85
2021/05/27 11:06:20;;;;;;;1.90;1.70;;;19.80;57.90;;;;;;4976247;28;20484;-86
2021/05/27 11:08:47;;;;;;;2.60;1.90;;;20.40;56.50;;;;;;4991182;28;20501;-84
2021/05/27 11:11:37;;;;;;;2.83;2.10;;;20.70;55.60;;;;;;4995813;28;20458;-84
2021/05/27 11:14:17;;;;;;;1.90;1.80;;;20.00;56.20;;;;;;4999550;28;20567;-86
2021/05/27 11:17:18;;;;;;;5.43;1.40;;;19.90;56.30;;;;;;4999448;28;20458;-85
2021/05/27 11:19:51;;;;;;;2.70;2.00;;;20.30;55.90;;;;;;4983702;28;20475;-85
2021/05/27 11:22:55;;;;;;;3.13;2.70;;;20.90;55.10;;;;;;4980063;28;20457;-86
2021/05/27 11:25:35;;;;;;;3.27;2.13;;;22.80;53.90;;;;;;4978765;28;20484;-87
2021/05/27 11:28:23;;;;;;;3.47;1.93;;;24.80;49.80;;;;;;4989751;28;20465;-85
2021/05/27 11:30:53;;;;;;;4.40;2.43;;;24.90;48.40;;;;;;4970826;28;20461;-88
2021/05/27 11:33:32;;;;;;;3.33;1.80;;;24.90;48.40;;;;;;4969264;28;20507;-88
2021/05/27 11:36:03;;;;;;;3.80;2.80;;;26.30;46.30;;;;;;4965519;28;20457;-88
2021/05/27 11:38:32;;;;;;;2.10;1.80;;;28.30;43.90;;;;;;4992202;28;20471;-89
2021/05/27 11:41:01;;;;;;;2.60;1.40;;;28.60;40.70;;;;;;5018214;28;20447;-89
2021/05/27 11:43:30;;;;;;;2.63;1.60;;;28.70;40.50;;;;;;4973852;28;20444;-88
2021/05/27 11:45:58;;;;;;;2.80;1.60;;;29.40;40.10;;;;;;4964509;28;20543;-88
2021/05/27 11:48:27;;;;;;;2.80;1.30;;;29.50;38.90;;;;;;4962929;28;20480;-87
2021/05/27 11:51:02;;;;;;;1.93;1.30;;;28.60;39.10;;;;;;4960396;28;20540;-86
2021/05/27 11:53:40;;;;;;;2.90;1.90;;;26.70;41.60;;;;;;4976569;28;20443;-88
2021/05/27 11:56:06;;;;;;;3.37;1.87;;;24.80;44.80;;;;;;4989996;28;20451;-87
2021/05/27 11:58:34;;;;;;;3.70;1.60;;;23.60;47.00;;;;;;4997230;28;20475;-86
2021/05/27 12:01:16;;;;;;;2.80;1.33;;;22.90;47.90;;;;;;4998025;28;20450;-86
2021/05/27 12:03:58;;;;;;;1.50;1.27;;;24.00;48.00;;;;;;4994659;28;20447;-85
2021/05/27 12:06:24;;;;;;;1.50;1.30;;;26.20;44.10;;;;;;4998402;28;20447;-87
2021/05/27 12:08:51;;;;;;;8.80;3.80;;;26.20;43.10;;;;;;5012534;28;20454;-87
2021/05/27 12:11:28;;;;;;;3.63;2.23;;;24.90;45.10;;;;;;5005254;28;20469;-90
2021/05/27 12:13:59;;;;;;;3.07;1.70;;;23.80;46.70;;;;;;4986530;28;20454;-88
2021/05/27 12:16:33;;;;;;;2.20;1.70;;;23.30;47.50;;;;;;4979059;28;20878;-87
2021/05/27 12:19:01;;;;;;;2.77;1.90;;;24.50;47.60;;;;;;4987007;28;20534;-87
2021/05/27 12:21:27;;;;;;;4.10;1.60;;;27.50;44.50;;;;;;4978474;28;20463;-88
2021/05/27 12:23:55;;;;;;;2.00;1.47;;;28.30;40.60;;;;;;4977955;28;20522;-86
2021/05/27 12:26:21;;;;;;;3.57;2.43;;;28.00;40.80;;;;;;4977161;28;20460;-86
2021/05/27 12:28:55;;;;;;;3.47;2.17;;;27.20;41.50;;;;;;4977922;28;20475;-87
2021/05/27 12:31:21;;;;;;;2.63;1.70;;;25.90;43.90;;;;;;4977450;28;20572;-86
2021/05/27 12:33:50;;;;;;;4.50;2.30;;;25.30;44.80;;;;;;4977036;28;20440;-86
2021/05/27 12:36:16;;;;;;;2.30;1.90;;;25.40;44.50;;;;;;4985794;28;20456;-88
2021/05/27 12:38:45;;;;;;;2.57;1.97;;;25.10;44.70;;;;;;4991124;28;20474;-88
2021/05/27 12:41:12;;;;;;;2.33;1.63;;;24.30;45.30;;;;;;4994190;28;20459;-89
2021/05/27 12:43:41;;;;;;;2.60;1.70;;;23.90;46.50;;;;;;4979754;28;20460;-89
2021/05/27 12:46:10;;;;;;;2.07;1.83;;;23.20;48.10;;;;;;4976390;28;20655;-88
2021/05/27 12:48:49;;;;;;;1.90;1.60;;;23.00;48.90;;;;;;4978322;28;20486;-88
2021/05/27 12:51:17;;;;;;;2.70;1.77;;;23.20;48.30;;;;;;4978639;28;20480;-87
2021/05/27 12:53:50;;;;;;;1.90;1.70;;;23.00;48.30;;;;;;4977905;28;20467;-87
2021/05/27 12:56:20;;;;;;;2.83;1.70;;;22.80;48.50;;;;;;4977031;28;20428;-89
2021/05/27 12:58:50;;;;;;;3.20;2.50;;;22.50;49.20;;;;;;4977675;28;20522;-89
2021/05/27 13:01:30;;;;;;;2.47;2.27;;;22.00;50.60;;;;;;4977759;28;20475;-89
2021/05/27 13:03:56;;;;;;;2.87;1.83;;;21.70;51.50;;;;;;4976582;28;20476;-85
2021/05/27 13:06:24;;;;;;;3.20;1.50;;;21.60;51.20;;;;;;4976711;28;20540;-86
2021/05/27 13:08:56;;;;;;;1.70;1.27;;;21.80;50.80;;;;;;4978945;28;20476;-87
2021/05/27 13:11:27;;;;;;;3.97;1.80;;;21.80;50.70;;;;;;4978719;28;20453;-87
2021/05/27 13:13:54;;;;;;;3.50;1.30;;;21.80;50.20;;;;;;4979397;28;20544;-88
2021/05/27 13:16:41;;;;;;;2.70;1.53;;;22.20;49.80;;;;;;4991135;28;20417;-88
2021/05/27 13:19:19;;;;;;;1.43;1.33;;;22.30;49.60;;;;;;4998909;28;20456;-89
2021/05/27 13:21:48;;;;;;;2.37;2.17;;;22.20;50.00;;;;;;4984328;28;20515;-88
2021/05/27 13:24:30;;;;;;;1.37;1.27;;;22.00;50.90;;;;;;4998383;28;20473;-88
2021/05/27 13:27:02;;;;;;;1.90;1.53;;;21.90;51.30;;;;;;4983415;28;20460;-88
2021/05/27 13:29:47;;;;;;;2.23;1.80;;;22.10;51.50;;;;;;4975546;28;20476;-87
2021/05/27 13:32:18;;;;;;;2.23;1.60;;;22.70;50.40;;;;;;4981483;28;20439;-88
2021/05/27 13:34:48;;;;;;;2.20;1.23;;;23.00;48.70;;;;;;4994789;28;20492;-87
2021/05/27 13:37:15;;;;;;;2.20;1.50;;;23.00;47.80;;;;;;4976854;28;20489;-82
2021/05/27 13:39:41;;;;;;;1.60;1.30;;;22.70;48.70;;;;;;4998985;28;20467;-83
2021/05/27 13:42:09;;;;;;;2.47;1.70;;;22.30;48.90;;;;;;4999855;28;20470;-83
2021/05/27 13:44:35;;;;;;;4.27;1.40;;;21.90;50.40;;;;;;4999092;28;20510;-84
2021/05/27 13:47:02;;;;;;;5.47;1.90;;;21.40;51.30;;;;;;4983804;28;20436;-83
2021/05/27 13:49:36;;;;;;;3.77;2.27;;;20.80;52.50;;;;;;4997744;28;20466;-79
2021/05/27 13:52:03;;;;;;;2.43;1.57;;;20.60;53.50;;;;;;4998223;28;20502;-82
2021/05/27 13:54:29;;;;;;;2.53;1.30;;;20.70;54.30;;;;;;4988522;28;20451;-83
2021/05/27 13:56:55;;;;;;;1.87;1.50;;;20.90;54.50;;;;;;4978897;28;20790;-83
2021/05/27 13:59:23;;;;;;;1.53;1.10;;;21.00;53.90;;;;;;4982813;28;20470;-84
2021/05/27 14:01:52;;;;;;;4.00;1.63;;;21.10;53.50;;;;;;4983330;28;20547;-83
2021/05/27 14:04:18;;;;;;;4.53;1.90;;;21.10;52.80;;;;;;4975136;28;20485;-83
2021/05/27 14:06:44;;;;;;;2.33;1.97;;;20.90;53.10;;;;;;4988682;28;20502;-83
2021/05/27 14:09:11;;;;;;;3.07;1.77;;;20.80;53.00;;;;;;4992079;28;20459;-84
2021/05/27 14:11:38;;;;;;;3.00;2.10;;;20.60;53.30;;;;;;4985400;28;20483;-83